TimeWET,TemperatureF,Dew PointF,Humidity,Sea Level PressureIn,VisibilityMPH,Wind Direction,Wind SpeedMPH,Gust SpeedMPH,PrecipitationIn,Events,Conditions,WindDirDegrees,DateUTC
6:00 AM,35,15,31,,9,North,3.5,,,,,0,2013-02-05 06:00:00
6:00 AM,33.8,15.8,48,30.36,-9999.0,North,3.5,-,N/A,,Clear,360,2013-02-05 06:00:00
7:00 AM,33.8,15.8,48,30.39,-9999.0,Calm,Calm,-,N/A,,Clear,0,2013-02-05 07:00:00
8:00 AM,32.0,15.8,51,30.39,-9999.0,West,3.5,-,N/A,,Clear,260,2013-02-05 08:00:00
9:00 AM,42,25,37,,16,Calm,Calm,,,,,,2013-02-05 09:00:00
9:00 AM,41.0,24.8,53,30.42,-9999.0,Calm,Calm,-,N/A,,Clear,0,2013-02-05 09:00:00
10:00 AM,48.2,21.2,34,30.42,-9999.0,Calm,Calm,-,N/A,,Clear,0,2013-02-05 10:00:00
11:00 AM,-9999,-9999,N/A,30.42,-9999.0,West,2.3,-,N/A,,Unknown,260,2013-02-05 11:00:00
12:00 PM,55,6,6,,12,West,6.9,,,,,260,2013-02-05 12:00:00
12:00 PM,55.4,6.8,14,30.39,-9999.0,West,6.9,-,N/A,,Clear,260,2013-02-05 12:00:00
1:00 PM,57.2,5.0,12,30.36,-9999.0,WSW,9.2,-,N/A,,Clear,240,2013-02-05 13:00:00
2:00 PM,59.0,10.4,15,30.33,-9999.0,WSW,10.4,-,N/A,,Clear,240,2013-02-05 14:00:00
3:00 PM,61,8,5,,12,SW,11.5,,,,,220,2013-02-05 15:00:00
3:00 PM,60.8,8.6,13,30.30,-9999.0,WSW,11.5,-,N/A,,Clear,240,2013-02-05 15:00:00
4:00 PM,60.8,8.6,13,30.30,-9999.0,West,9.2,-,N/A,,Clear,260,2013-02-05 16:00:00
5:00 PM,60.8,6.8,12,30.27,-9999.0,SW,9.2,-,N/A,,Clear,220,2013-02-05 17:00:00
6:00 PM,58,6,5,,12,WSW,3.5,,,,,240,2013-02-05 18:00:00
6:00 PM,57.2,5.0,12,30.27,-9999.0,WSW,3.5,-,N/A,,Clear,240,2013-02-05 18:00:00
9:00 PM,50,10,10,,9,Calm,Calm,,,,,,2013-02-05 21:00:00
9:00 PM,50.0,10.4,20,30.27,-9999.0,Calm,Calm,-,N/A,,Clear,0,2013-02-05 21:00:00